createdAt,value
2022-09-01T00:00:05.640Z,8.00
2022-09-01T00:02:34.248Z,8.00
2022-09-01T00:05:04.844Z,8.00
2022-09-01T00:07:32.197Z,8.00
2022-09-01T00:10:00.394Z,7.90
2022-09-01T00:12:29.139Z,7.90
2022-09-01T00:14:56.643Z,7.90
2022-09-01T00:17:24.036Z,7.80
2022-09-01T00:19:51.371Z,7.80
2022-09-01T00:22:18.755Z,7.80
2022-09-01T00:24:45.988Z,7.70
2022-09-01T00:27:13.228Z,7.70
2022-09-01T00:29:44.082Z,7.60
2022-09-01T00:32:12.282Z,7.60
2022-09-01T00:34:40.481Z,7.60
2022-09-01T00:37:08.360Z,7.60
2022-09-01T00:39:35.761Z,7.60
2022-09-01T00:42:03.080Z,7.60
2022-09-01T00:44:31.791Z,7.60
2022-09-01T00:47:00.169Z,7.60
2022-09-01T00:49:37.353Z,7.60
2022-09-01T00:52:38.961Z,7.60
2022-09-01T00:55:29.502Z,7.60
2022-09-01T00:57:57.030Z,7.60
2022-09-01T01:00:27.922Z,7.50
2022-09-01T01:02:57.844Z,7.50
2022-09-01T01:05:40.559Z,7.50
2022-09-01T01:08:09.810Z,7.40
2022-09-01T01:10:40.474Z,7.40
2022-09-01T01:13:11.304Z,7.40
2022-09-01T01:15:40.918Z,7.40
2022-09-01T01:18:08.226Z,7.40
2022-09-01T01:20:54.596Z,7.30
2022-09-01T01:23:58.043Z,7.30
2022-09-01T01:26:25.374Z,7.20
2022-09-01T01:28:53.531Z,7.20
2022-09-01T01:31:24.393Z,7.20
2022-09-01T01:33:55.328Z,7.10
2022-09-01T01:36:36.101Z,7.10
2022-09-01T01:39:15.427Z,7.10
2022-09-01T01:41:45.684Z,7.10
2022-09-01T01:44:14.838Z,7.10
2022-09-01T01:46:45.791Z,7.10
2022-09-01T01:49:21.002Z,7.10
2022-09-01T01:51:49.995Z,7.10
2022-09-01T01:54:20.131Z,7.00
2022-09-01T01:56:47.500Z,7.00
2022-09-01T01:59:17.022Z,7.00
2022-09-01T02:01:49.516Z,6.90
2022-09-01T02:04:17.941Z,6.90
2022-09-01T02:06:46.490Z,6.90
2022-09-01T02:09:15.373Z,6.90
2022-09-01T02:11:44.252Z,6.80
2022-09-01T02:14:13.695Z,6.80
2022-09-01T02:16:41.230Z,6.80
2022-09-01T02:19:12.221Z,6.80
2022-09-01T02:21:44.814Z,6.80
2022-09-01T02:24:13.054Z,6.80
2022-09-01T02:26:45.999Z,6.70
2022-09-01T02:29:19.360Z,6.70
2022-09-01T02:31:52.670Z,6.70
2022-09-01T02:34:21.986Z,6.70
2022-09-01T02:36:52.158Z,6.70
2022-09-01T02:39:23.489Z,6.70
2022-09-01T02:41:51.872Z,6.70
2022-09-01T02:44:19.219Z,6.70
2022-09-01T02:46:46.979Z,6.70
2022-09-01T02:49:20.082Z,6.70
2022-09-01T02:51:54.193Z,6.70
2022-09-01T02:54:24.794Z,6.70
2022-09-01T02:56:54.764Z,6.70
2022-09-01T02:59:24.837Z,6.70
2022-09-01T03:01:54.220Z,6.70
2022-09-01T03:04:23.243Z,6.70
2022-09-01T03:06:55.041Z,6.70
2022-09-01T03:09:23.342Z,6.70
2022-09-01T03:11:52.865Z,6.70
2022-09-01T03:14:22.333Z,6.70
2022-09-01T03:16:49.698Z,6.70
2022-09-01T03:19:17.743Z,6.60
2022-09-01T03:21:46.658Z,6.60
2022-09-01T03:24:17.062Z,6.60
2022-09-01T03:26:49.767Z,6.60
2022-09-01T03:29:18.393Z,6.60
2022-09-01T03:31:45.911Z,6.60
2022-09-01T03:34:13.624Z,6.60
2022-09-01T03:36:50.634Z,6.60
2022-09-01T03:39:20.114Z,6.60
2022-09-01T03:41:47.393Z,6.60
2022-09-01T03:44:16.606Z,6.60
2022-09-01T03:46:45.006Z,6.60
2022-09-01T03:49:15.780Z,6.70
2022-09-01T03:51:45.338Z,6.70
2022-09-01T03:54:13.772Z,6.70
2022-09-01T03:56:41.949Z,6.70
2022-09-01T03:59:17.405Z,6.70
2022-09-01T04:01:45.829Z,6.70
2022-09-01T04:04:16.838Z,6.80
2022-09-01T04:06:47.787Z,6.80
2022-09-01T04:09:15.347Z,6.80
2022-09-01T04:11:46.478Z,6.80
2022-09-01T04:14:14.247Z,6.90
2022-09-01T04:16:59.994Z,6.90
2022-09-01T04:19:27.629Z,6.90
2022-09-01T04:21:57.933Z,6.90
2022-09-01T04:24:28.606Z,6.90
2022-09-01T04:26:58.936Z,6.90
2022-09-01T04:29:29.845Z,6.90
2022-09-01T04:32:02.791Z,7.00
2022-09-01T04:34:37.672Z,7.00
2022-09-01T04:37:13.380Z,7.10
2022-09-01T04:39:52.605Z,7.10
2022-09-01T04:42:24.561Z,7.20
2022-09-01T04:44:56.856Z,7.30
2022-09-01T04:47:35.371Z,7.30
2022-09-01T04:50:13.222Z,7.30
2022-09-01T04:52:42.399Z,7.40
2022-09-01T04:55:18.071Z,7.50
2022-09-01T04:57:47.710Z,7.50
2022-09-01T05:00:23.591Z,7.60
2022-09-01T05:03:04.978Z,7.60
2022-09-01T05:05:43.293Z,7.70
2022-09-01T05:08:23.656Z,7.80
2022-09-01T05:10:55.963Z,7.80
2022-09-01T05:13:23.897Z,7.90
2022-09-01T05:16:06.651Z,7.90
2022-09-01T05:18:34.219Z,8.00
2022-09-01T05:21:10.149Z,8.00
2022-09-01T05:23:40.956Z,8.10
2022-09-01T05:26:18.398Z,8.20
2022-09-01T05:28:50.207Z,8.30
2022-09-01T05:31:20.453Z,8.30
2022-09-01T05:33:50.176Z,8.40
2022-09-01T05:36:20.379Z,8.40
2022-09-01T05:38:49.463Z,8.50
2022-09-01T05:41:18.279Z,8.50
2022-09-01T05:43:49.985Z,8.60
2022-09-01T05:46:21.288Z,8.60
2022-09-01T05:48:52.202Z,8.70
2022-09-01T05:51:43.746Z,8.80
2022-09-01T05:54:13.132Z,8.80
2022-09-01T05:56:44.132Z,8.90
2022-09-01T05:59:28.566Z,9.00
2022-09-01T06:02:01.225Z,9.00
2022-09-01T06:04:30.199Z,9.10
2022-09-01T06:07:06.180Z,9.20
2022-09-01T06:09:40.228Z,9.20
2022-09-01T06:12:09.950Z,9.20
2022-09-01T06:14:37.148Z,9.30
2022-09-01T06:17:04.472Z,9.30
2022-09-01T06:19:37.239Z,9.40
2022-09-01T06:22:05.174Z,9.50
2022-09-01T06:24:32.839Z,9.60
2022-09-01T06:27:00.095Z,9.60
2022-09-01T06:29:27.354Z,9.70
2022-09-01T06:31:54.660Z,9.80
2022-09-01T06:34:22.609Z,9.80
2022-09-01T06:36:51.851Z,9.90
2022-09-01T06:39:21.800Z,10.00
2022-09-01T06:41:53.193Z,10.00
2022-09-01T06:44:23.434Z,10.00
2022-09-01T06:46:52.333Z,10.00
2022-09-01T06:49:21.725Z,10.00
2022-09-01T06:51:51.941Z,10.00
2022-09-01T06:54:21.239Z,10.10
2022-09-01T06:56:51.177Z,10.30
2022-09-01T06:59:19.552Z,10.40
2022-09-01T07:01:49.888Z,10.40
2022-09-01T07:04:20.390Z,10.50
2022-09-01T07:07:01.538Z,10.60
2022-09-01T07:12:28.688Z,10.60
2022-09-01T07:17:53.438Z,10.90
2022-09-01T07:20:24.439Z,11.00
2022-09-01T07:23:09.420Z,11.10
2022-09-01T07:26:02.385Z,11.20
2022-09-01T07:28:39.434Z,11.40
2022-09-01T07:39:51.559Z,11.40
2022-09-01T07:45:27.085Z,11.50
2022-09-01T07:47:56.130Z,11.60
2022-09-01T07:50:38.799Z,11.60
2022-09-01T07:53:09.646Z,11.60
2022-09-01T07:55:42.163Z,11.60
2022-09-01T07:58:12.137Z,11.60
2022-09-01T08:00:47.664Z,11.80
2022-09-01T08:03:15.016Z,11.90
2022-09-01T08:05:42.784Z,12.10
2022-09-01T08:08:28.899Z,12.20
2022-09-01T08:11:04.430Z,12.30
2022-09-01T08:13:38.865Z,12.20
2022-09-01T08:16:16.191Z,12.10
2022-09-01T08:18:49.083Z,12.40
2022-09-01T08:21:19.246Z,12.70
2022-09-01T08:23:48.099Z,12.90
2022-09-01T08:26:18.266Z,12.80
2022-09-01T08:28:54.350Z,12.70
2022-09-01T08:31:23.548Z,12.70
2022-09-01T08:33:52.042Z,12.80
2022-09-01T08:36:23.703Z,13.00
2022-09-01T08:38:52.879Z,13.10
2022-09-01T08:41:47.366Z,12.90
2022-09-01T08:44:32.758Z,12.80
2022-09-01T08:47:28.777Z,12.70
2022-09-01T08:50:00.206Z,12.90
2022-09-01T08:52:56.238Z,12.80
2022-09-01T08:55:39.337Z,12.90
2022-09-01T08:58:08.029Z,13.10
2022-09-01T09:00:43.724Z,13.40
2022-09-01T09:03:40.958Z,13.40
2022-09-01T09:06:37.906Z,13.30
2022-09-01T09:09:09.443Z,13.30
2022-09-01T09:12:10.142Z,13.40
2022-09-01T09:14:55.934Z,13.40
2022-09-01T09:17:30.513Z,13.20
2022-09-01T09:19:57.813Z,13.20
2022-09-01T09:22:25.144Z,13.20
2022-09-01T09:24:56.308Z,13.10
2022-09-01T09:27:28.566Z,13.00
2022-09-01T09:30:07.338Z,13.20
2022-09-01T09:33:37.265Z,13.20
2022-09-01T09:35:46.454Z,13.20
2022-09-01T09:38:21.524Z,13.50
2022-09-01T09:44:01.735Z,14.00
2022-09-01T09:46:47.760Z,13.90
2022-09-01T09:49:34.598Z,14.10
2022-09-01T09:52:08.983Z,14.30
2022-09-01T09:54:38.351Z,14.50
2022-09-01T09:57:14.638Z,14.50
2022-09-01T10:00:01.271Z,14.30
2022-09-01T10:02:34.499Z,14.00
2022-09-01T10:05:21.503Z,13.70
2022-09-01T10:07:49.928Z,13.70
2022-09-01T10:10:38.278Z,13.90
2022-09-01T10:13:09.444Z,14.20
2022-09-01T10:15:38.115Z,14.10
2022-09-01T10:18:32.101Z,14.10
2022-09-01T10:21:07.712Z,14.00
2022-09-01T10:23:38.764Z,14.00
2022-09-01T10:26:10.682Z,14.10
2022-09-01T10:28:51.492Z,14.30
2022-09-01T10:31:20.600Z,14.50
2022-09-01T10:33:49.036Z,14.60
2022-09-01T10:36:17.349Z,14.60
2022-09-01T10:38:50.551Z,14.30
2022-09-01T10:42:00.085Z,14.00
2022-09-01T10:44:35.779Z,14.10
2022-09-01T10:47:13.795Z,14.30
2022-09-01T10:49:46.494Z,14.30
2022-09-01T10:52:51.206Z,14.20
2022-09-01T10:55:45.743Z,14.30
2022-09-01T11:01:53.437Z,14.70
2022-09-01T11:04:30.881Z,14.90
2022-09-01T11:07:14.513Z,15.20
2022-09-01T11:09:44.813Z,15.10
2022-09-01T11:12:39.420Z,15.30
2022-09-01T11:15:16.837Z,15.50
2022-09-01T11:17:52.839Z,15.70
2022-09-01T11:20:25.320Z,15.80
2022-09-01T11:23:00.433Z,15.80
2022-09-01T11:25:48.614Z,15.70
2022-09-01T11:28:41.988Z,15.80
2022-09-01T11:31:09.215Z,15.90
2022-09-01T11:34:01.508Z,15.80
2022-09-01T11:36:35.809Z,15.70
2022-09-01T11:39:19.318Z,15.70
2022-09-01T11:42:15.038Z,15.60
2022-09-01T11:44:58.219Z,15.60
2022-09-01T11:47:36.806Z,15.60
2022-09-01T11:50:09.447Z,15.40
2022-09-01T11:52:38.873Z,15.10
2022-09-01T11:55:07.533Z,14.80
2022-09-01T11:57:40.415Z,14.80
2022-09-01T12:00:13.642Z,15.00
2022-09-01T12:02:51.098Z,15.30
2022-09-01T12:05:27.269Z,15.40
2022-09-01T12:07:55.433Z,15.10
2022-09-01T12:10:33.845Z,15.00
2022-09-01T12:13:10.958Z,15.20
2022-09-01T12:16:07.063Z,15.40
2022-09-01T12:18:44.227Z,15.60
2022-09-01T12:21:23.773Z,15.90
2022-09-01T12:23:51.107Z,15.90
2022-09-01T12:26:27.957Z,15.90
2022-09-01T12:28:56.585Z,15.90
2022-09-01T12:31:26.301Z,15.90
2022-09-01T12:33:55.569Z,16.20
2022-09-01T12:36:29.766Z,16.20
2022-09-01T12:39:20.439Z,16.30
2022-09-01T12:42:01.608Z,16.10
2022-09-01T12:44:37.480Z,16.00
2022-09-01T12:47:10.560Z,15.80
2022-09-01T12:49:50.130Z,15.70
2022-09-01T12:52:22.282Z,16.00
2022-09-01T12:54:53.721Z,16.40
2022-09-01T12:57:39.981Z,16.50
2022-09-01T13:00:12.943Z,16.40
2022-09-01T13:02:42.209Z,16.50
2022-09-01T13:05:31.853Z,16.60
2022-09-01T13:08:01.089Z,16.50
2022-09-01T13:10:34.614Z,16.20
2022-09-01T13:13:02.247Z,15.90
2022-09-01T13:15:31.255Z,15.60
2022-09-01T13:17:58.997Z,15.30
2022-09-01T13:20:26.246Z,15.00
2022-09-01T13:22:55.021Z,14.70
2022-09-01T13:25:23.567Z,14.40
2022-09-01T13:27:52.510Z,14.10
2022-09-01T13:30:22.546Z,14.00
2022-09-01T13:35:37.794Z,14.70
2022-09-01T13:38:05.170Z,15.20
2022-09-01T13:40:32.495Z,15.80
2022-09-01T13:42:59.722Z,16.10
2022-09-01T13:45:26.989Z,16.30
2022-09-01T13:53:32.220Z,16.80
2022-09-01T13:55:59.624Z,16.90
2022-09-01T13:58:26.931Z,16.60
2022-09-01T14:00:54.281Z,16.20
2022-09-01T14:03:24.041Z,15.80
2022-09-01T14:05:51.583Z,15.50
2022-09-01T14:08:21.639Z,15.10
2022-09-01T14:10:51.309Z,14.90
2022-09-01T14:13:20.513Z,14.80
2022-09-01T14:15:49.425Z,14.60
2022-09-01T14:18:17.608Z,14.40
2022-09-01T14:20:48.046Z,14.10
2022-09-01T14:23:16.037Z,13.90
2022-09-01T14:25:50.829Z,13.90
2022-09-01T14:28:20.419Z,13.80
2022-09-01T14:33:17.431Z,13.80
2022-09-01T14:35:48.329Z,13.80
2022-09-01T14:38:16.013Z,13.80
2022-09-01T14:40:46.994Z,13.80
2022-09-01T14:43:14.592Z,13.80
2022-09-01T14:45:46.124Z,13.70
2022-09-01T14:48:15.561Z,13.60
2022-09-01T14:50:45.773Z,13.50
2022-09-01T14:53:13.643Z,13.50
2022-09-01T14:55:44.093Z,13.50
2022-09-01T14:58:11.345Z,13.50
2022-09-01T15:00:39.316Z,13.40
2022-09-01T15:03:06.767Z,13.40
2022-09-01T15:05:39.900Z,13.30
2022-09-01T15:08:11.943Z,13.20
2022-09-01T15:10:41.537Z,13.00
2022-09-01T15:13:09.016Z,12.90
2022-09-01T15:15:37.928Z,12.90
2022-09-01T15:18:05.234Z,13.00
2022-09-01T15:20:47.990Z,13.10
2022-09-01T15:23:33.333Z,13.20
2022-09-01T15:26:01.441Z,13.20
2022-09-01T15:28:28.719Z,13.30
2022-09-01T15:30:57.261Z,13.40
2022-09-01T15:33:24.622Z,13.70
2022-09-01T15:35:52.049Z,14.20
2022-09-01T15:38:21.307Z,14.70
2022-09-01T15:40:55.348Z,15.20
2022-09-01T15:43:26.314Z,15.80
2022-09-01T15:45:53.632Z,16.00
2022-09-01T15:48:21.028Z,15.90
2022-09-01T15:50:48.243Z,15.70
2022-09-01T15:53:15.510Z,15.50
2022-09-01T15:55:46.063Z,15.30
2022-09-01T15:58:14.171Z,15.10
2022-09-01T16:00:42.208Z,14.90
2022-09-01T16:03:10.221Z,14.70
2022-09-01T16:05:39.580Z,14.60
2022-09-01T16:08:09.902Z,14.70
2022-09-01T16:10:40.171Z,14.90
2022-09-01T16:13:07.837Z,15.20
2022-09-01T16:15:35.562Z,15.50
2022-09-01T16:18:14.811Z,15.70
2022-09-01T16:20:49.893Z,15.90
2022-09-01T16:23:25.444Z,15.80
2022-09-01T16:25:53.980Z,15.50
2022-09-01T16:28:30.762Z,15.30
2022-09-01T16:31:43.218Z,14.90
2022-09-01T16:34:18.288Z,14.60
2022-09-01T16:37:05.972Z,14.30
2022-09-01T16:39:45.230Z,14.10
2022-09-01T16:42:46.651Z,13.90
2022-09-01T16:45:19.977Z,13.70
2022-09-01T16:47:59.244Z,13.50
2022-09-01T16:50:51.627Z,13.40
2022-09-01T16:54:03.605Z,13.20
2022-09-01T16:56:46.011Z,13.10
2022-09-01T16:59:25.083Z,13.00
2022-09-01T17:02:38.682Z,12.90
2022-09-01T17:05:30.232Z,12.90
2022-09-01T17:08:17.943Z,12.80
2022-09-01T17:11:18.787Z,12.70
2022-09-01T17:13:51.478Z,12.60
2022-09-01T17:16:24.782Z,12.50
2022-09-01T17:19:05.159Z,12.20
2022-09-01T17:21:53.050Z,11.90
2022-09-01T17:24:34.071Z,11.80
2022-09-01T17:27:08.811Z,11.60
2022-09-01T17:29:43.195Z,11.50
2022-09-01T17:32:14.271Z,11.40
2022-09-01T17:34:58.668Z,11.30
2022-09-01T17:37:48.280Z,11.20
2022-09-01T17:40:34.157Z,11.20
2022-09-01T17:43:28.480Z,11.00
2022-09-01T17:46:08.865Z,10.90
2022-09-01T17:49:10.955Z,10.90
2022-09-01T17:51:40.741Z,10.80
2022-09-01T17:54:36.304Z,10.80
2022-09-01T17:57:15.412Z,10.70
2022-09-01T18:00:03.179Z,10.70
2022-09-01T18:02:46.242Z,10.70
2022-09-01T18:05:24.411Z,10.60
2022-09-01T18:08:30.321Z,10.60
2022-09-01T18:11:00.192Z,10.60
2022-09-01T18:13:52.970Z,10.50
2022-09-01T18:16:28.398Z,10.50
2022-09-01T18:19:03.011Z,10.40
2022-09-01T18:21:36.011Z,10.40
2022-09-01T18:24:16.613Z,10.30
2022-09-01T18:26:45.424Z,10.20
2022-09-01T18:29:12.641Z,10.20
2022-09-01T18:32:03.793Z,10.10
2022-09-01T18:34:58.962Z,10.00
2022-09-01T18:38:07.745Z,10.00
2022-09-01T18:41:04.878Z,9.90
2022-09-01T18:43:48.372Z,9.90
2022-09-01T18:46:31.149Z,9.80
2022-09-01T18:49:23.532Z,9.70
2022-09-01T18:52:15.784Z,9.60
2022-09-01T18:54:48.514Z,9.50
2022-09-01T18:57:21.317Z,9.40
2022-09-01T19:00:06.498Z,9.30
2022-09-01T19:02:54.130Z,9.20
2022-09-01T19:05:50.385Z,9.10
2022-09-01T19:08:54.685Z,9.00
2022-09-01T19:11:32.958Z,8.90
2022-09-01T19:14:07.028Z,8.80
2022-09-01T19:16:52.525Z,8.70
2022-09-01T19:19:39.686Z,8.70
2022-09-01T19:22:06.853Z,8.60
2022-09-01T19:24:38.296Z,8.60
2022-09-01T19:27:11.658Z,8.50
2022-09-01T19:29:53.345Z,8.50
2022-09-01T19:32:24.072Z,8.50
2022-09-01T19:34:58.645Z,8.40
2022-09-01T19:37:26.776Z,8.40
2022-09-01T19:39:54.708Z,8.30
2022-09-01T19:42:28.290Z,8.20
2022-09-01T19:45:07.623Z,8.20
2022-09-01T19:48:05.702Z,8.20
2022-09-01T19:50:46.866Z,8.10
2022-09-01T19:53:41.915Z,8.00
2022-09-01T19:56:28.117Z,8.00
2022-09-01T19:59:14.392Z,7.90
2022-09-01T20:02:24.994Z,7.80
2022-09-01T20:05:35.911Z,7.80
2022-09-01T20:08:13.467Z,7.80
2022-09-01T20:10:56.099Z,7.70
2022-09-01T20:13:35.865Z,7.70
2022-09-01T20:16:14.915Z,7.60
2022-09-01T20:18:49.124Z,7.60
2022-09-01T20:21:21.327Z,7.50
2022-09-01T20:23:57.826Z,7.50
2022-09-01T20:26:35.455Z,7.40
2022-09-01T20:29:23.394Z,7.30
2022-09-01T20:31:55.865Z,7.30
2022-09-01T20:34:29.577Z,7.20
2022-09-01T20:37:00.534Z,7.10
2022-09-01T20:39:55.297Z,7.00
2022-09-01T20:42:33.865Z,6.90
2022-09-01T20:45:09.905Z,6.80
2022-09-01T20:47:37.165Z,6.70
2022-09-01T20:50:13.105Z,6.70
2022-09-01T20:53:11.330Z,6.60
2022-09-01T20:55:49.386Z,6.50
2022-09-01T20:58:32.864Z,6.50
2022-09-01T21:01:17.857Z,6.40
2022-09-01T21:04:01.535Z,6.40
2022-09-01T21:06:48.734Z,6.40
2022-09-01T21:09:39.066Z,6.40
2022-09-01T21:12:08.230Z,6.30
2022-09-01T21:14:55.259Z,6.30
2022-09-01T21:17:38.372Z,6.30
2022-09-01T21:20:32.900Z,6.30
2022-09-01T21:23:01.559Z,6.20
2022-09-01T21:25:30.985Z,6.10
2022-09-01T21:28:02.501Z,6.10
2022-09-01T21:30:35.132Z,6.00
2022-09-01T21:33:03.294Z,5.90
2022-09-01T21:35:30.725Z,5.80
2022-09-01T21:37:58.004Z,5.80
2022-09-01T21:40:26.027Z,5.70
2022-09-01T21:43:04.082Z,5.60
2022-09-01T21:45:33.991Z,5.60
2022-09-01T21:48:02.906Z,5.50
2022-09-01T21:50:30.406Z,5.50
2022-09-01T21:52:57.807Z,5.50
2022-09-01T21:55:25.462Z,5.40
2022-09-01T21:57:53.182Z,5.30
2022-09-01T22:00:26.145Z,5.20
2022-09-01T22:02:54.147Z,5.20
2022-09-01T22:05:21.645Z,5.10
2022-09-01T22:07:49.006Z,5.10
2022-09-01T22:10:19.422Z,5.00
2022-09-01T22:12:48.130Z,5.00
2022-09-01T22:15:19.227Z,5.00
2022-09-01T22:17:47.232Z,5.10
2022-09-01T22:20:18.794Z,5.10
2022-09-01T22:22:47.289Z,5.10
2022-09-01T22:25:19.212Z,5.20
2022-09-01T22:27:46.538Z,5.20
2022-09-01T22:30:14.952Z,5.30
2022-09-01T22:32:45.472Z,5.30
2022-09-01T22:35:12.988Z,5.30
2022-09-01T22:37:41.253Z,5.40
2022-09-01T22:40:09.569Z,5.40
2022-09-01T22:42:37.168Z,5.40
2022-09-01T22:45:05.861Z,5.30
2022-09-01T22:47:35.281Z,5.30
2022-09-01T22:50:07.060Z,5.30
2022-09-01T22:52:35.810Z,5.30
2022-09-01T22:55:04.740Z,5.30
2022-09-01T22:57:33.005Z,5.30
2022-09-01T23:00:01.268Z,5.30
2022-09-01T23:02:28.671Z,5.30
2022-09-01T23:04:55.910Z,5.30
2022-09-01T23:07:23.103Z,5.30
2022-09-01T23:09:50.329Z,5.30
2022-09-01T23:12:17.562Z,5.30
2022-09-01T23:14:44.888Z,5.20
2022-09-01T23:17:12.250Z,5.20
2022-09-01T23:19:39.463Z,5.20
2022-09-01T23:22:06.794Z,5.10
2022-09-01T23:24:34.051Z,5.10
2022-09-01T23:27:01.425Z,5.10
2022-09-01T23:29:28.669Z,5.10
2022-09-01T23:31:56.556Z,5.00
2022-09-01T23:34:23.917Z,5.00
2022-09-01T23:36:51.178Z,5.00
2022-09-01T23:39:18.674Z,5.10
2022-09-01T23:41:46.167Z,5.20
2022-09-01T23:44:14.529Z,5.30
2022-09-01T23:46:44.734Z,5.50
2022-09-01T23:49:14.910Z,5.60
2022-09-01T23:51:42.220Z,5.60
2022-09-01T23:54:09.706Z,5.60
2022-09-01T23:56:38.642Z,5.60
2022-09-01T23:59:06.388Z,5.70
